Time;durP1;ratioP1;P1;durP2;ratioP2;P2;SDS_P1;SDS_P2;PMS_P1;PMS_P2;Temp;Humidity;BMP_temperature;BMP_pressure;BME280_temperature;BME280_humidity;BME280_pressure;Samples;Min_cycle;Max_cycle;Signal;HPM_P1;HPM_P2
2023/03/02 00:01:00;;;;;;;3.63;2.53;;;;;;;2.22;66.53;102671.16;4995815;28;99501;-32
2023/03/02 00:03:27;;;;;;;6.35;3.40;;;;;;;2.20;66.02;102673.81;4995981;28;96609;-31
2023/03/02 00:05:55;;;;;;;3.72;3.15;;;;;;;2.16;65.42;102671.13;4995832;28;96906;-30
2023/03/02 00:08:20;;;;;;;2.70;1.67;;;;;;;2.13;67.03;102663.97;4994612;28;100868;-30
2023/03/02 00:10:45;;;;;;;2.35;2.10;;;;;;;2.15;66.60;102672.03;4995763;28;97797;-30
2023/03/02 00:13:13;;;;;;;5.60;3.80;;;;;;;2.12;66.62;102665.78;4996853;28;96625;-30
2023/03/02 00:15:39;;;;;;;4.30;3.72;;;;;;;2.10;66.08;102674.69;4995490;28;96878;-29
2023/03/02 00:18:04;;;;;;;3.28;2.13;;;;;;;2.10;67.27;102672.00;4996728;28;97689;-30
2023/03/02 00:20:30;;;;;;;3.38;2.80;;;;;;;2.09;66.80;102662.19;4996402;28;99184;-31
2023/03/02 00:22:55;;;;;;;5.75;3.80;;;;;;;2.03;69.85;102671.09;4996792;28;96773;-31
2023/03/02 00:25:20;;;;;;;6.00;2.95;;;;;;;2.05;68.98;102666.63;4996766;28;96832;-30
2023/03/02 00:27:46;;;;;;;5.43;4.20;;;;;;;2.06;68.43;102662.19;4995963;28;99494;-30
2023/03/02 00:30:13;;;;;;;7.50;4.70;;;;;;;2.04;68.43;102661.28;4996522;28;100487;-30
2023/03/02 00:32:38;;;;;;;7.00;4.53;;;;;;;2.01;69.47;102663.94;4994752;28;96697;-30
2023/03/02 00:35:04;;;;;;;5.65;3.72;;;;;;;2.04;69.18;102661.28;4996730;28;97089;-30
2023/03/02 00:37:30;;;;;;;6.43;4.65;;;;;;;2.03;68.43;102659.50;4994947;28;100944;-30
2023/03/02 00:39:55;;;;;;;6.28;4.13;;;;;;;2.02;69.75;102655.03;4996266;28;97232;-30
2023/03/02 00:42:21;;;;;;;10.55;4.35;;;;;;;2.01;69.54;102653.25;4996484;28;96722;-30
2023/03/02 00:44:46;;;;;;;7.97;4.57;;;;;;;2.01;71.27;102648.81;4995019;28;96871;-30
2023/03/02 00:47:12;;;;;;;9.50;3.67;;;;;;;1.99;70.35;102644.34;4996018;28;98977;-31
2023/03/02 00:49:37;;;;;;;6.10;4.35;;;;;;;2.00;69.74;102644.34;4996439;28;99470;-30
2023/03/02 00:52:04;;;;;;;9.20;4.40;;;;;;;1.92;70.04;102638.97;4996526;28;96703;-32
2023/03/02 00:54:29;;;;;;;10.45;5.38;;;;;;;1.89;71.67;102641.63;4994913;28;96877;-30
2023/03/02 00:56:55;;;;;;;12.98;5.68;;;;;;;1.89;72.38;102638.09;4995466;28;100095;-32
2023/03/02 00:59:26;;;;;;;11.05;5.88;;;;;;;1.88;71.42;102637.19;4995953;28;99073;-30
2023/03/02 01:01:58;;;;;;;10.60;6.10;;;;;;;1.89;72.30;102646.09;4996152;28;96694;-29
2023/03/02 01:04:30;;;;;;;9.77;5.38;;;;;;;1.84;73.82;102637.19;4996396;28;96552;-30
2023/03/02 01:07:01;;;;;;;9.23;4.15;;;;;;;1.81;72.54;102637.16;4995527;28;99538;-30
2023/03/02 01:09:27;;;;;;;9.77;5.68;;;;;;;1.82;73.41;102638.94;4994346;28;98984;-30
2023/03/02 01:11:52;;;;;;;13.45;6.38;;;;;;;1.84;72.58;102639.84;4996278;28;96659;-30
2023/03/02 01:14:18;;;;;;;6.75;3.90;;;;;;;1.83;73.62;102638.03;4996553;28;96775;-30
2023/03/02 01:16:43;;;;;;;9.43;4.78;;;;;;;1.80;73.18;102632.69;4995317;28;99334;-30
2023/03/02 01:19:09;;;;;;;12.02;5.82;;;;;;;1.75;72.88;102635.34;4995536;28;98848;-30
2023/03/02 01:21:34;;;;;;;12.35;6.38;;;;;;;1.76;72.96;102630.91;4994939;28;96759;-30
2023/03/02 01:24:00;;;;;;;5.85;4.57;;;;;;;1.75;75.23;102643.38;4995869;28;96659;-30
2023/03/02 01:26:25;;;;;;;7.75;5.65;;;;;;;1.68;74.62;102639.78;4995324;28;98409;-30
2023/03/02 01:28:54;;;;;;;14.48;5.22;;;;;;;1.69;74.86;102654.94;4994159;28;101522;-30
2023/03/02 01:31:24;;;;;;;7.68;5.75;;;;;;;1.65;75.03;102647.78;4994595;28;96581;-31
2023/03/02 01:33:50;;;;;;;11.20;5.72;;;;;;;1.67;75.90;102647.81;4994268;28;96919;-31
2023/03/02 01:36:16;;;;;;;9.00;5.72;;;;;;;1.63;73.63;102638.88;4993939;28;101314;-30
2023/03/02 01:38:41;;;;;;;7.72;5.13;;;;;;;1.59;75.62;102636.16;4995851;28;97298;-30
2023/03/02 01:41:07;;;;;;;7.20;5.18;;;;;;;1.59;74.16;102639.72;4995663;28;96675;-29
2023/03/02 01:43:33;;;;;;;10.13;6.45;;;;;;;1.57;77.11;102633.47;4995735;28;96727;-30
2023/03/02 01:46:01;;;;;;;14.57;5.57;;;;;;;1.53;75.34;102634.38;4994665;28;98942;-30
2023/03/02 01:48:36;;;;;;;14.75;7.03;;;;;;;1.54;76.13;102641.50;4993642;28;101633;-30
2023/03/02 01:51:03;;;;;;;7.57;3.45;;;;;;;1.51;75.46;102629.91;4994183;28;96556;-30
2023/03/02 01:53:31;;;;;;;12.15;5.18;;;;;;;1.53;76.52;102633.50;4994353;28;96793;-30
2023/03/02 01:55:59;;;;;;;17.27;6.95;;;;;;;1.52;76.01;102631.69;4993877;28;100990;-30
2023/03/02 01:58:25;;;;;;;9.88;6.47;;;;;;;1.45;75.07;102626.34;4993635;28;100889;-30
2023/03/02 02:00:53;;;;;;;12.43;6.30;;;;;;;1.44;76.30;102629.00;4994063;28;96547;-30
2023/03/02 02:03:24;;;;;;;11.63;5.05;;;;;;;1.48;76.65;102626.34;4994278;28;96844;-30
2023/03/02 02:06:11;;;;;;;7.50;5.28;;;;;;;1.53;77.69;102625.47;4993506;28;101311;-30
2023/03/02 02:08:37;;;;;;;13.23;6.30;;;;;;;1.49;76.00;102622.78;4993563;28;100948;-30
2023/03/02 02:11:04;;;;;;;7.97;5.90;;;;;;;1.48;76.92;102621.00;4994686;28;96589;-30
2023/03/02 02:13:29;;;;;;;8.07;5.32;;;;;;;1.43;76.31;102619.16;4993569;28;96842;-30
2023/03/02 02:15:55;;;;;;;11.82;7.60;;;;;;;1.37;76.66;102620.03;4994687;28;98474;-32
2023/03/02 02:18:20;;;;;;;9.05;4.82;;;;;;;1.36;76.53;102623.63;4994952;28;97690;-30
2023/03/02 02:20:47;;;;;;;15.38;7.45;;;;;;;1.34;77.25;102613.81;4995190;28;96558;-29
2023/03/02 02:23:24;;;;;;;8.63;4.75;;;;;;;1.33;78.67;102625.34;4993702;28;96579;-30
2023/03/02 02:25:54;;;;;;;9.38;6.07;;;;;;;1.37;76.81;102621.84;4993034;28;101366;-30
2023/03/02 02:28:38;;;;;;;14.80;5.35;;;;;;;1.34;77.81;102617.38;4993317;28;101130;-31
2023/03/02 02:31:21;;;;;;;6.32;4.68;;;;;;;1.31;76.51;102601.34;4995138;28;96686;-30
2023/03/02 02:33:52;;;;;;;8.57;5.47;;;;;;;1.31;76.36;102598.69;4992907;28;96772;-30
2023/03/02 02:36:25;;;;;;;8.15;6.00;;;;;;;1.33;76.06;102596.88;4992710;28;101042;-30
2023/03/02 02:38:55;;;;;;;9.80;4.95;;;;;;;1.35;77.08;102597.78;4993181;28;100673;-30
2023/03/02 02:41:25;;;;;;;8.70;5.13;;;;;;;1.30;77.53;102594.19;4993579;28;96619;-30
2023/03/02 02:43:50;;;;;;;9.75;5.32;;;;;;;1.33;77.05;102596.00;4993333;28;96752;-31
2023/03/02 02:46:16;;;;;;;10.68;5.35;;;;;;;1.28;78.69;102596.84;4994558;28;97855;-30
2023/03/02 02:48:41;;;;;;;9.50;4.68;;;;;;;1.31;77.39;102596.00;4994431;28;97396;-30
2023/03/02 02:51:09;;;;;;;9.45;6.70;;;;;;;1.31;78.83;102597.75;4993223;28;96653;-32
2023/03/02 02:53:57;;;;;;;9.50;5.13;;;;;;;1.27;77.44;102591.53;4993651;28;96796;-30
2023/03/02 02:56:25;;;;;;;8.40;4.28;;;;;;;1.27;78.49;102589.75;4994366;28;98026;-30
2023/03/02 02:58:54;;;;;;;10.88;5.80;;;;;;;1.26;77.08;102587.97;4994143;28;97820;-31
2023/03/02 03:01:24;;;;;;;14.00;6.72;;;;;;;1.27;79.30;102592.41;4994012;28;96443;-32
2023/03/02 03:03:54;;;;;;;11.95;5.95;;;;;;;1.22;77.25;102585.28;4993106;28;96657;-30
2023/03/02 03:06:24;;;;;;;14.82;6.90;;;;;;;1.21;77.21;102589.69;4992899;28;100992;-31
2023/03/02 03:08:54;;;;;;;7.43;5.53;;;;;;;1.19;79.62;102586.16;4994436;28;97834;-30
2023/03/02 03:11:23;;;;;;;8.02;4.72;;;;;;;1.20;79.95;102587.94;4994312;28;96608;-30
2023/03/02 03:14:14;;;;;;;10.45;6.05;;;;;;;1.17;80.25;102577.25;4994680;28;96731;-32
2023/03/02 03:16:43;;;;;;;8.48;5.55;;;;;;;1.18;78.83;102578.13;4989486;28;100777;-31
2023/03/02 03:19:30;;;;;;;11.85;5.57;;;;;;;1.22;77.71;102583.50;4992961;28;100953;-30
2023/03/02 03:22:00;;;;;;;9.45;4.95;;;;;;;1.22;78.03;102579.94;4992992;28;96600;-30
2023/03/02 03:24:28;;;;;;;13.40;5.22;;;;;;;1.25;79.22;102580.84;4992370;28;96750;-29
2023/03/02 03:26:54;;;;;;;4.65;3.15;;;;;;;1.28;78.16;102585.28;4991578;28;101471;-30
2023/03/02 03:29:23;;;;;;;7.85;4.63;;;;;;;1.27;78.25;102581.75;4994099;28;97747;-29
2023/03/02 03:31:49;;;;;;;12.88;5.75;;;;;;;1.25;79.30;102580.84;4992788;28;96591;-30
2023/03/02 03:34:15;;;;;;;5.65;4.00;;;;;;;1.22;78.88;102575.50;4992770;28;96879;-30
2023/03/02 03:36:42;;;;;;;5.78;3.40;;;;;;;1.22;79.54;102570.16;4993879;28;97372;-30
2023/03/02 03:39:08;;;;;;;12.13;4.68;;;;;;;1.28;78.26;102586.19;4992270;28;100514;-30
2023/03/02 03:41:35;;;;;;;5.22;4.47;;;;;;;1.23;78.56;102577.25;4992779;28;96607;-30
2023/03/02 03:44:00;;;;;;;18.00;6.18;;;;;;;1.24;78.33;102583.47;4994574;28;96782;-30
2023/03/02 03:46:26;;;;;;;8.20;4.90;;;;;;;1.22;78.91;102571.94;4995853;28;101196;-30
2023/03/02 03:48:52;;;;;;;11.15;5.57;;;;;;;1.21;78.55;102567.47;4995719;28;101101;-31
2023/03/02 03:51:18;;;;;;;9.82;4.65;;;;;;;1.21;78.74;102578.13;4995730;28;96554;-30
2023/03/02 03:53:43;;;;;;;11.13;4.85;;;;;;;1.20;79.88;102579.03;4997386;28;96738;-30
2023/03/02 03:56:09;;;;;;;14.85;6.90;;;;;;;1.18;79.14;102578.13;4997224;28;97455;-30
2023/03/02 03:58:34;;;;;;;8.45;5.10;;;;;;;1.14;78.93;102576.31;4996867;28;99317;-30
2023/03/02 04:01:00;;;;;;;11.00;6.38;;;;;;;1.15;79.87;102572.78;4997584;28;97089;-30
2023/03/02 04:03:25;;;;;;;7.05;4.35;;;;;;;1.15;81.12;102572.78;4997482;28;96736;-30
2023/03/02 04:05:51;;;;;;;15.88;5.45;;;;;;;1.18;80.32;102586.13;4996898;28;98380;-33
2023/03/02 04:08:18;;;;;;;7.38;4.00;;;;;;;1.15;79.97;102580.78;4996943;28;97823;-30
2023/03/02 04:10:44;;;;;;;5.38;4.40;;;;;;;1.12;79.55;102584.34;4995815;28;96889;-30
2023/03/02 04:13:10;;;;;;;12.15;6.95;;;;;;;1.12;79.32;102584.34;4997112;28;96792;-30
2023/03/02 04:15:35;;;;;;;9.73;4.13;;;;;;;1.14;80.22;102587.00;4994591;28;101363;-30
2023/03/02 04:18:01;;;;;;;8.13;4.47;;;;;;;1.16;80.36;102590.56;4996622;28;99040;-30
2023/03/02 04:20:27;;;;;;;7.68;4.97;;;;;;;1.19;79.82;102591.50;4995602;28;96609;-30
2023/03/02 04:22:55;;;;;;;9.40;5.63;;;;;;;1.11;80.35;102582.53;4995453;28;96892;-31
2023/03/02 04:25:25;;;;;;;10.77;5.47;;;;;;;1.12;79.97;102595.00;4994822;28;100980;-31
2023/03/02 04:27:52;;;;;;;10.15;4.93;;;;;;;1.11;79.15;102593.22;4994751;28;100257;-30
2023/03/02 04:30:21;;;;;;;6.60;4.72;;;;;;;1.09;80.57;102591.41;4995485;28;96481;-31
2023/03/02 04:32:47;;;;;;;8.43;4.72;;;;;;;1.08;79.94;102592.31;4995701;28;96833;-30
2023/03/02 04:35:13;;;;;;;10.77;6.28;;;;;;;1.06;79.57;102586.97;4996045;28;99972;-32
2023/03/02 04:37:40;;;;;;;12.00;5.55;;;;;;;0.99;81.12;102585.13;4995019;28;100723;-31
2023/03/02 04:40:08;;;;;;;5.90;3.78;;;;;;;1.00;81.79;102589.56;4994592;28;96703;-30
2023/03/02 04:42:34;;;;;;;12.88;6.05;;;;;;;1.01;81.93;102591.38;4995034;28;96647;-30
2023/03/02 04:44:59;;;;;;;9.18;4.88;;;;;;;0.96;80.44;102594.03;4996199;28;97922;-30
2023/03/02 04:47:25;;;;;;;9.18;4.22;;;;;;;0.97;81.45;102586.91;4996332;28;97302;-30
2023/03/02 04:49:53;;;;;;;11.15;4.40;;;;;;;0.91;80.43;102574.44;4994843;28;96764;-31
2023/03/02 04:52:20;;;;;;;12.20;5.72;;;;;;;0.92;79.67;102575.31;4994923;28;97851;-31
2023/03/02 04:54:46;;;;;;;4.60;3.22;;;;;;;0.93;79.88;102583.34;4994510;28;101009;-32
2023/03/02 04:57:11;;;;;;;8.95;5.43;;;;;;;0.91;80.48;102579.75;4996634;28;97374;-30
2023/03/02 04:59:37;;;;;;;5.78;3.50;;;;;;;0.88;80.76;102585.06;4996469;28;96588;-31
2023/03/02 05:02:03;;;;;;;10.18;4.95;;;;;;;0.88;80.78;102589.50;4996500;28;96677;-30
2023/03/02 05:04:29;;;;;;;10.27;5.43;;;;;;;0.87;79.59;102574.41;4993607;28;100720;-30
2023/03/02 05:06:55;;;;;;;4.78;2.28;;;;;;;0.84;81.40;102584.16;4994611;28;100410;-30
2023/03/02 05:09:26;;;;;;;8.32;5.53;;;;;;;0.86;81.53;102578.84;4994861;28;96699;-30
2023/03/02 05:11:55;;;;;;;8.52;5.38;;;;;;;0.85;80.69;102588.59;4996420;28;96496;-30
2023/03/02 05:14:20;;;;;;;3.70;2.80;;;;;;;0.86;81.81;102592.19;4994311;28;101166;-30
2023/03/02 05:16:46;;;;;;;7.55;5.28;;;;;;;0.84;81.70;102581.50;4995690;28;97905;-30
2023/03/02 05:19:12;;;;;;;5.75;3.55;;;;;;;0.88;80.79;102587.72;4995898;28;96499;-30
2023/03/02 05:21:38;;;;;;;9.38;4.53;;;;;;;0.89;81.54;102583.31;4995106;28;96835;-32
2023/03/02 05:24:03;;;;;;;6.03;4.32;;;;;;;0.92;81.77;102580.66;4993847;28;100843;-30
2023/03/02 05:26:29;;;;;;;11.10;4.05;;;;;;;0.89;81.02;102573.53;4994903;28;97807;-29
2023/03/02 05:28:54;;;;;;;6.47;4.93;;;;;;;0.89;81.32;102576.19;4995683;28;96435;-30
2023/03/02 05:31:33;;;;;;;9.45;3.33;;;;;;;0.89;81.92;102567.31;4995891;28;96755;-30
2023/03/02 05:33:59;;;;;;;8.23;5.05;;;;;;;0.90;80.89;102567.28;4995503;28;99204;-31
2023/03/02 05:36:25;;;;;;;10.07;5.97;;;;;;;0.85;81.34;102567.25;4994125;28;101041;-31
2023/03/02 05:38:51;;;;;;;13.07;4.78;;;;;;;0.85;81.42;102566.38;4995761;28;96695;-31
2023/03/02 05:41:16;;;;;;;12.55;5.15;;;;;;;0.77;81.81;102561.00;4995962;28;96737;-31
2023/03/02 05:43:42;;;;;;;9.63;3.97;;;;;;;0.77;81.19;102566.34;4995279;28;99634;-31
2023/03/02 05:46:07;;;;;;;8.05;4.03;;;;;;;0.76;80.94;102569.91;4995458;28;97742;-31
2023/03/02 05:48:33;;;;;;;7.80;4.18;;;;;;;0.77;82.17;102574.31;4995785;28;96624;-30
2023/03/02 05:50:58;;;;;;;5.40;4.03;;;;;;;0.70;81.60;102575.16;4995739;28;96765;-29
2023/03/02 05:53:24;;;;;;;10.38;3.88;;;;;;;0.67;82.81;102575.16;4994908;28;97931;-29
2023/03/02 05:55:50;;;;;;;10.05;4.35;;;;;;;0.68;81.77;102573.38;4995613;28;97216;-31
2023/03/02 05:58:18;;;;;;;8.52;5.80;;;;;;;0.70;82.45;102575.16;4993977;28;96714;-30
2023/03/02 06:00:44;;;;;;;4.28;2.70;;;;;;;0.67;82.50;102575.16;4993890;28;96934;-31
2023/03/02 06:03:10;;;;;;;9.02;4.63;;;;;;;0.71;82.52;102584.06;4993656;28;100500;-30
2023/03/02 06:05:35;;;;;;;6.80;4.00;;;;;;;0.70;82.35;102585.84;4994976;28;97288;-32
2023/03/02 06:08:01;;;;;;;9.57;5.97;;;;;;;0.71;82.12;102584.94;4993923;28;96695;-30
2023/03/02 06:10:26;;;;;;;9.93;5.25;;;;;;;0.72;82.31;102589.41;4995610;28;96803;-29
2023/03/02 06:12:52;;;;;;;6.00;3.45;;;;;;;0.68;82.92;102586.72;4995045;28;97217;-29
2023/03/02 06:15:18;;;;;;;9.27;4.72;;;;;;;0.68;82.11;102600.03;4994810;28;97305;-29
2023/03/02 06:17:43;;;;;;;4.75;3.97;;;;;;;0.68;81.96;102595.59;4994629;28;96498;-30
2023/03/02 06:20:09;;;;;;;4.78;2.72;;;;;;;0.72;83.75;102588.53;4995096;28;96796;-30
2023/03/02 06:22:45;;;;;;;6.25;3.58;;;;;;;0.76;83.18;102601.91;4993529;28;101109;-31
2023/03/02 06:25:14;;;;;;;8.60;5.18;;;;;;;0.73;83.25;102600.97;4993014;28;99825;-30
2023/03/02 06:27:41;;;;;;;7.30;4.00;;;;;;;0.76;82.21;102599.22;4993276;28;96723;-30
2023/03/02 06:30:08;;;;;;;8.82;3.80;;;;;;;0.68;81.81;102600.03;4993498;28;96822;-29
2023/03/02 06:32:34;;;;;;;6.03;3.60;;;;;;;0.68;82.29;102608.03;4994677;28;100165;-30
2023/03/02 06:35:04;;;;;;;6.68;4.82;;;;;;;0.66;81.97;102612.47;4993544;28;98884;-30
2023/03/02 06:37:30;;;;;;;9.95;4.50;;;;;;;0.66;82.24;102616.03;4993450;28;96731;-30
2023/03/02 06:39:56;;;;;;;8.75;5.45;;;;;;;0.62;82.67;102617.78;4993336;28;97739;-30
2023/03/02 06:42:28;;;;;;;5.43;3.85;;;;;;;0.64;82.80;102623.09;4992320;28;101327;-30
2023/03/02 06:44:56;;;;;;;8.30;4.67;;;;;;;0.58;81.76;102617.75;4993095;28;100766;-31
2023/03/02 06:47:22;;;;;;;8.82;3.75;;;;;;;0.59;82.22;102624.84;4994595;28;96548;-30
2023/03/02 06:49:48;;;;;;;10.98;4.85;;;;;;;0.58;82.67;102623.06;4993497;28;96899;-29
2023/03/02 06:52:14;;;;;;;5.57;3.53;;;;;;;0.56;82.40;102630.16;4992997;28;100925;-31
2023/03/02 06:54:39;;;;;;;6.38;4.75;;;;;;;0.54;82.63;102623.91;4992818;28;101087;-32
2023/03/02 06:57:05;;;;;;;8.40;3.85;;;;;;;0.57;83.74;102621.28;4994639;28;96562;-29
2023/03/02 06:59:30;;;;;;;10.05;6.05;;;;;;;0.60;82.37;102622.22;4994920;28;96764;-30
2023/03/02 07:01:56;;;;;;;5.38;3.88;;;;;;;0.63;82.85;102618.66;4992883;28;99465;-31
2023/03/02 07:04:21;;;;;;;5.43;3.13;;;;;;;0.60;81.80;102611.53;4994282;28;97802;-30
2023/03/02 07:06:46;;;;;;;10.75;4.95;;;;;;;0.63;83.00;102618.66;4994172;28;96408;-30
2023/03/02 07:09:12;;;;;;;12.77;5.38;;;;;;;0.65;82.66;102616.91;4994270;28;96860;-32
2023/03/02 07:11:38;;;;;;;3.97;3.15;;;;;;;0.66;82.69;102616.03;4994216;28;97937;-30
2023/03/02 07:14:04;;;;;;;7.47;4.25;;;;;;;0.67;82.76;102612.50;4992720;28;101063;-30
2023/03/02 07:16:30;;;;;;;7.43;4.65;;;;;;;0.71;83.09;102608.06;4994399;28;96464;-31
2023/03/02 07:18:55;;;;;;;9.45;4.95;;;;;;;0.75;82.82;102605.44;4995753;28;96757;-31
2023/03/02 07:21:21;;;;;;;9.35;4.03;;;;;;;0.74;83.02;102611.66;4997892;28;97559;-30
2023/03/02 07:23:46;;;;;;;6.93;4.35;;;;;;;0.79;83.21;102609.91;4997944;28;97985;-31
2023/03/02 07:26:12;;;;;;;5.78;3.63;;;;;;;0.87;82.21;102617.06;4996017;28;96872;-30
2023/03/02 07:28:39;;;;;;;6.07;3.72;;;;;;;0.87;82.29;102615.28;4997263;28;97144;-31
2023/03/02 07:31:04;;;;;;;5.75;3.25;;;;;;;0.89;81.97;102620.66;4995485;28;101405;-30
2023/03/02 07:33:30;;;;;;;13.18;4.75;;;;;;;0.97;82.06;102621.59;4997349;28;97836;-30
2023/03/02 07:35:56;;;;;;;8.02;5.75;;;;;;;1.03;82.05;102619.84;4996252;28;96639;-30
2023/03/02 07:38:21;;;;;;;12.77;5.03;;;;;;;1.14;81.85;102629.69;4997873;28;96758;-30
2023/03/02 07:40:47;;;;;;;5.18;3.50;;;;;;;1.23;82.82;102625.31;4996996;28;99173;-30
2023/03/02 07:43:12;;;;;;;12.82;5.45;;;;;;;1.41;82.12;102618.31;4997218;28;99119;-30
2023/03/02 07:45:38;;;;;;;8.48;4.25;;;;;;;1.52;81.44;102618.34;4997463;28;96517;-30
2023/03/02 07:48:04;;;;;;;9.55;4.47;;;;;;;1.65;81.12;102630.88;4998106;28;96725;-30
2023/03/02 07:50:30;;;;;;;9.05;4.75;;;;;;;1.69;80.44;102616.63;4995772;28;102048;-31
2023/03/02 07:52:55;;;;;;;10.05;5.82;;;;;;;1.79;80.09;102625.56;4995750;28;100425;-30
2023/03/02 07:55:21;;;;;;;11.00;4.38;;;;;;;1.95;79.90;102623.84;4995304;28;96695;-29
2023/03/02 07:57:46;;;;;;;8.45;4.63;;;;;;;2.08;79.70;102628.34;4997316;28;96791;-30
2023/03/02 08:00:12;;;;;;;12.25;5.05;;;;;;;2.18;78.83;102627.47;4997046;28;100035;-32
2023/03/02 08:02:39;;;;;;;10.65;4.90;;;;;;;2.22;78.38;102628.38;4995395;28;100728;-29
2023/03/02 08:05:05;;;;;;;8.93;4.10;;;;;;;2.17;79.01;102624.78;4997071;28;96687;-31
2023/03/02 08:07:31;;;;;;;10.73;5.30;;;;;;;2.25;78.75;102620.34;4997071;28;96541;-30
2023/03/02 08:09:56;;;;;;;10.85;4.82;;;;;;;2.34;78.67;102625.72;4995332;28;99104;-30
2023/03/02 08:12:22;;;;;;;7.75;4.40;;;;;;;2.48;78.02;102625.69;4997206;28;98412;-30
2023/03/02 08:14:48;;;;;;;12.60;6.20;;;;;;;2.53;77.88;102622.16;4997488;28;96566;-30
2023/03/02 08:17:13;;;;;;;5.95;4.00;;;;;;;2.54;77.51;102607.00;4996751;28;96763;-30
2023/03/02 08:19:39;;;;;;;11.95;5.50;;;;;;;2.69;77.48;102611.44;4996277;28;97363;-30
2023/03/02 08:22:04;;;;;;;16.13;6.70;;;;;;;2.80;76.76;102624.84;4996783;28;98648;-30
2023/03/02 08:24:30;;;;;;;8.18;5.05;;;;;;;2.88;76.88;102615.88;4996830;28;96771;-30
2023/03/02 08:26:59;;;;;;;9.57;4.97;;;;;;;2.96;76.79;102610.53;4996489;28;96848;-30
2023/03/02 08:29:24;;;;;;;15.80;6.93;;;;;;;3.03;75.80;102611.41;4994940;28;101368;-30
2023/03/02 08:31:50;;;;;;;8.93;3.53;;;;;;;3.23;75.98;102609.59;4996409;28;96798;-30
2023/03/02 08:34:16;;;;;;;11.98;6.75;;;;;;;3.40;75.36;102606.84;4996926;28;96600;-31
2023/03/02 08:36:42;;;;;;;14.85;5.47;;;;;;;3.53;74.75;102605.03;4997308;28;96762;-30
2023/03/02 08:39:08;;;;;;;7.93;4.60;;;;;;;3.67;74.82;102597.84;4996265;28;99235;-31
2023/03/02 08:41:34;;;;;;;6.05;3.70;;;;;;;3.76;74.23;102600.44;4996140;28;99101;-30
2023/03/02 08:43:59;;;;;;;7.22;3.92;;;;;;;3.81;73.98;102604.00;4996209;28;96661;-30
2023/03/02 08:46:24;;;;;;;14.23;6.32;;;;;;;3.87;73.57;102599.53;4996322;28;96820;-30
2023/03/02 08:48:50;;;;;;;13.32;5.20;;;;;;;3.98;73.13;102598.56;4996059;28;99084;-30
2023/03/02 08:51:21;;;;;;;4.80;2.58;;;;;;;4.13;73.16;102594.88;4995994;28;99305;-30
2023/03/02 08:53:49;;;;;;;8.57;4.20;;;;;;;4.25;72.84;102600.16;4996606;28;96590;-32
2023/03/02 08:56:38;;;;;;;7.78;4.72;;;;;;;4.28;71.89;102609.09;4994924;28;96887;-30
2023/03/02 08:59:06;;;;;;;9.95;6.10;;;;;;;4.28;72.03;102603.72;4996075;28;99523;-31
2023/03/02 09:01:33;;;;;;;15.25;5.82;;;;;;;4.28;72.04;102604.59;4995129;28;100821;-33
2023/03/02 09:04:00;;;;;;;13.68;5.85;;;;;;;4.22;72.18;102600.19;4994771;28;96754;-30
2023/03/02 09:06:27;;;;;;;11.23;5.97;;;;;;;4.22;72.27;102600.19;4996400;28;96751;-30
2023/03/02 09:08:52;;;;;;;5.40;3.03;;;;;;;4.37;72.36;102609.03;4994000;28;101173;-30
2023/03/02 09:11:18;;;;;;;8.13;4.50;;;;;;;4.32;72.08;102606.38;4994575;28;99260;-31
2023/03/02 09:13:47;;;;;;;10.70;4.55;;;;;;;4.34;71.78;102600.97;4994706;28;96817;-31
2023/03/02 09:16:13;;;;;;;12.20;5.35;;;;;;;4.38;72.24;102605.44;4995982;28;96823;-30
2023/03/02 09:18:39;;;;;;;10.15;5.32;;;;;;;4.43;71.62;102601.84;4994234;28;100892;-30
2023/03/02 09:21:04;;;;;;;14.73;6.22;;;;;;;4.47;71.35;102600.00;4995509;28;99299;-30
2023/03/02 09:23:31;;;;;;;6.50;3.67;;;;;;;4.63;71.47;102598.97;4994571;28;96604;-29
2023/03/02 09:25:56;;;;;;;13.07;6.68;;;;;;;4.65;71.35;102589.13;4994754;28;96837;-30
2023/03/02 09:28:22;;;;;;;9.43;5.75;;;;;;;4.74;71.05;102589.94;4995402;28;97934;-30
2023/03/02 09:30:49;;;;;;;11.10;5.70;;;;;;;4.82;70.45;102586.28;4995741;28;97951;-30
2023/03/02 09:33:15;;;;;;;4.10;3.25;;;;;;;5.03;69.46;102587.88;4993645;28;96738;-30
2023/03/02 09:35:40;;;;;;;9.98;4.68;;;;;;;5.35;69.47;102580.34;4995616;28;96530;-30
2023/03/02 09:38:05;;;;;;;7.05;3.92;;;;;;;5.65;68.70;102592.50;4993588;28;113422;-30
2023/03/02 09:40:32;;;;;;;10.63;5.07;;;;;;;5.79;68.22;102585.13;4995360;28;99152;-30
2023/03/02 09:43:25;;;;;;;6.20;3.20;;;;;;;6.00;67.30;102588.47;4994016;28;96799;-30
2023/03/02 09:46:24;;;;;;;6.97;3.47;;;;;;;6.22;66.48;102598.03;4995612;28;96815;-31
2023/03/02 09:49:05;;;;;;;11.57;3.42;;;;;;;6.44;65.16;102603.06;4989553;28;100892;-30
2023/03/02 09:51:43;;;;;;;8.55;3.97;;;;;;;6.72;66.04;102588.25;4995763;28;97830;-31
2023/03/02 09:54:19;;;;;;;6.70;3.78;;;;;;;6.99;64.35;102594.03;4994005;28;96739;-29
2023/03/02 09:56:53;;;;;;;10.55;3.97;;;;;;;7.20;64.11;102596.31;4995641;28;96526;-30
2023/03/02 09:59:50;;;;;;;13.35;4.47;;;;;;;7.39;63.47;102586.06;4994678;28;99304;-30
2023/03/02 10:02:47;;;;;;;9.55;5.00;;;;;;;7.33;62.28;102596.97;4992285;28;101330;-30
2023/03/02 10:05:28;;;;;;;8.27;4.00;;;;;;;7.38;62.89;102583.41;4995456;28;96763;-31
2023/03/02 10:07:54;;;;;;;12.52;5.03;;;;;;;7.50;62.49;102579.56;4994086;28;96704;-30
2023/03/02 10:10:25;;;;;;;11.45;5.55;;;;;;;7.63;63.32;102578.41;4993559;28;101381;-30
2023/03/02 10:13:03;;;;;;;6.20;2.72;;;;;;;7.57;59.76;102573.13;4994662;28;97555;-31
2023/03/02 10:15:37;;;;;;;6.93;3.65;;;;;;;7.92;61.90;102572.34;4993911;28;97290;-30
2023/03/02 10:18:18;;;;;;;5.85;3.40;;;;;;;8.22;61.15;102572.53;4994230;28;96683;-30
2023/03/02 10:20:55;;;;;;;8.77;3.95;;;;;;;8.39;61.01;102570.34;4993421;28;101303;-31
2023/03/02 10:23:46;;;;;;;13.02;6.15;;;;;;;8.45;60.46;102577.44;4993504;28;100801;-31
2023/03/02 10:26:37;;;;;;;16.90;5.17;;;;;;;8.43;60.01;102566.66;4994465;28;96874;-29
2023/03/02 10:29:30;;;;;;;10.85;3.95;;;;;;;8.54;59.09;102569.09;4995013;28;96724;-31
2023/03/02 10:32:03;;;;;;;8.77;4.10;;;;;;;8.69;59.93;102563.28;4994997;28;97391;-30
2023/03/02 10:34:29;;;;;;;8.50;3.90;;;;;;;8.71;59.60;102563.25;4993362;28;101043;-30
2023/03/02 10:36:56;;;;;;;10.38;4.38;;;;;;;8.79;57.95;102555.81;4993655;28;96632;-30
2023/03/02 10:39:21;;;;;;;16.92;5.07;;;;;;;8.85;58.63;102558.38;4993501;28;96843;-32
2023/03/02 10:42:02;;;;;;;7.05;3.42;;;;;;;8.98;59.65;102558.03;4994543;28;100524;-30
2023/03/02 10:44:32;;;;;;;11.35;5.65;;;;;;;9.10;58.96;102550.47;4995004;28;97760;-30
2023/03/02 10:46:58;;;;;;;7.38;3.70;;;;;;;9.21;57.69;102555.59;4993375;28;96619;-30
2023/03/02 10:49:31;;;;;;;9.60;5.43;;;;;;;9.30;58.85;102567.97;4994782;28;96843;-30
2023/03/02 10:51:56;;;;;;;11.27;4.68;;;;;;;9.34;56.91;102557.03;4992663;28;101399;-30
2023/03/02 10:54:22;;;;;;;7.30;3.47;;;;;;;9.36;58.03;102555.13;4993656;28;98374;-30
2023/03/02 10:56:50;;;;;;;9.77;4.20;;;;;;;9.62;58.28;102548.06;4976704;28;96587;-30
2023/03/02 10:59:25;;;;;;;8.57;3.95;;;;;;;9.59;57.73;102558.13;4993450;28;96783;-30
2023/03/02 11:02:15;;;;;;;7.55;3.70;;;;;;;9.79;57.43;102558.38;4992814;28;100779;-30
2023/03/02 11:04:40;;;;;;;8.43;4.10;;;;;;;9.76;56.55;102542.25;4994133;28;99267;-30
2023/03/02 11:07:14;;;;;;;8.52;3.92;;;;;;;9.99;57.12;102547.84;4994486;28;96646;-30
2023/03/02 11:09:39;;;;;;;8.05;3.65;;;;;;;9.83;56.35;102560.06;4993589;28;96763;-30
2023/03/02 11:12:13;;;;;;;9.93;4.05;;;;;;;9.94;56.21;102554.34;4994239;28;97898;-30
2023/03/02 11:14:38;;;;;;;10.82;4.20;;;;;;;10.11;56.71;102551.97;4992788;28;100373;-31
2023/03/02 11:17:28;;;;;;;9.40;4.07;;;;;;;10.13;56.92;102551.91;4993890;28;96653;-30
2023/03/02 11:19:54;;;;;;;10.68;4.38;;;;;;;10.14;56.54;102542.84;4993161;28;96607;-30
2023/03/02 11:22:50;;;;;;;11.38;4.35;;;;;;;10.26;55.54;102555.13;4994319;28;97369;-31
2023/03/02 11:25:25;;;;;;;10.68;3.63;;;;;;;10.48;56.33;102549.91;4993896;28;97825;-30
2023/03/02 11:27:58;;;;;;;7.22;3.80;;;;;;;10.52;55.98;102540.72;4992523;28;96792;-30
2023/03/02 11:30:25;;;;;;;13.13;5.25;;;;;;;10.47;55.79;102548.13;4992905;28;96920;-30
2023/03/02 11:33:04;;;;;;;12.40;4.15;;;;;;;10.57;54.60;102546.88;4992468;28;100788;-30
2023/03/02 11:35:42;;;;;;;8.38;3.95;;;;;;;10.63;53.89;102539.44;4992751;28;101135;-30